Aviation Digital Data Service (ADDS)

Output produced by METARs form (0702 UTC 24 May 2015)
found at http://www.aviationweather.gov/adds/metars/
 
KALB 240535Z 2406/2506 19005KT P6SM SCT100 
     FM241100 19008KT P6SM SKC 
     FM241400 22010G16KT P6SM SKC 
     FM241700 24013G20KT P6SM FEW250 
     FM250000 23007KT P6SM SCT250 
     FM250300 19005KT P6SM SCT120 BKN250